Time;durP1;ratioP1;P1;durP2;ratioP2;P2;SDS_P1;SDS_P2;PMS_P1;PMS_P2;Temp;Humidity;BMP_temperature;BMP_pressure;BME280_temperature;BME280_humidity;BME280_pressure;Samples;Min_cycle;Max_cycle;Signal;HPM_P1;HPM_P2
2021/07/31 00:02:01;;;;;;;12.45;9.35;;;28.50;27.30;;;;;;21161315;28;20529;-66
2021/07/31 00:12:03;;;;;;;3.67;2.03;;;28.30;27.70;;;;;;21163062;28;20043;-68
2021/07/31 00:22:05;;;;;;;5.32;2.70;;;28.20;27.60;;;;;;21160402;28;20051;-66
2021/07/31 00:32:07;;;;;;;3.80;2.20;;;28.10;27.60;;;;;;21155727;28;20047;-66
2021/07/31 00:42:09;;;;;;;5.13;2.00;;;28.10;27.40;;;;;;21174860;28;20051;-65
2021/07/31 00:52:11;;;;;;;4.72;2.78;;;27.90;27.50;;;;;;21173985;28;20047;-67
2021/07/31 01:02:13;;;;;;;6.28;3.63;;;27.70;27.40;;;;;;21173190;28;20415;-65
2021/07/31 01:12:14;;;;;;;3.90;2.53;;;27.70;28.00;;;;;;21172172;28;20079;-68
2021/07/31 01:22:17;;;;;;;3.55;2.30;;;27.50;27.80;;;;;;21176508;28;20070;-64
2021/07/31 01:32:18;;;;;;;2.35;1.90;;;27.30;28.30;;;;;;21180407;28;20055;-65
2021/07/31 01:42:23;;;;;;;2.92;1.75;;;27.20;29.20;;;;;;21168280;28;20451;-67
2021/07/31 01:52:28;;;;;;;2.60;1.90;;;27.10;29.10;;;;;;21169017;28;20434;-66
2021/07/31 02:02:30;;;;;;;2.50;2.17;;;26.80;29.80;;;;;;21168657;28;20054;-65
2021/07/31 02:12:32;;;;;;;2.78;1.88;;;26.70;30.30;;;;;;21166667;28;20407;-65
2021/07/31 02:22:35;;;;;;;3.05;1.92;;;26.60;30.50;;;;;;21166220;28;20051;-67
2021/07/31 02:32:37;;;;;;;3.28;1.70;;;26.40;32.60;;;;;;21165770;28;20047;-68
2021/07/31 02:42:40;;;;;;;3.67;1.70;;;26.30;33.40;;;;;;21165013;28;20126;-65
2021/07/31 02:52:43;;;;;;;6.15;1.88;;;26.10;34.40;;;;;;21163589;28;20138;-66
2021/07/31 03:02:45;;;;;;;3.15;1.95;;;25.80;35.70;;;;;;21163521;28;20058;-65
2021/07/31 03:12:47;;;;;;;4.97;1.85;;;25.70;36.10;;;;;;21163230;28;20118;-65
2021/07/31 03:22:51;;;;;;;2.92;1.95;;;25.60;35.60;;;;;;21162275;28;20100;-65
2021/07/31 03:32:53;;;;;;;;;;;25.60;34.60;;;;;;21162403;28;20052;-66
2021/07/31 03:42:55;;;;;;;3.97;1.65;;;25.50;34.70;;;;;;21160872;28;19976;-65
2021/07/31 03:52:58;;;;;;;4.13;1.58;;;25.60;34.60;;;;;;21161999;28;20043;-64
2021/07/31 04:03:00;;;;;;;2.92;1.70;;;25.40;35.30;;;;;;21169407;28;20113;-65
2021/07/31 04:13:03;;;;;;;7.65;3.00;;;25.20;35.50;;;;;;21177621;28;20481;-65
2021/07/31 04:23:05;;;;;;;2.58;1.60;;;25.10;36.00;;;;;;21175595;28;20055;-66
2021/07/31 04:33:07;;;;;;;3.58;1.70;;;25.10;37.00;;;;;;21174868;28;20122;-67
2021/07/31 04:43:09;;;;;;;2.40;1.70;;;25.00;37.80;;;;;;21154983;28;20138;-66
2021/07/31 04:53:13;;;;;;;3.35;1.80;;;24.70;39.50;;;;;;21173934;28;20059;-67
2021/07/31 05:03:16;;;;;;;3.58;1.60;;;24.60;40.30;;;;;;21172707;28;20083;-66
2021/07/31 05:13:18;;;;;;;4.65;1.73;;;24.60;40.70;;;;;;21154301;28;20044;-67
2021/07/31 05:23:21;;;;;;;2.10;1.60;;;24.30;41.40;;;;;;21170534;28;20055;-64
2021/07/31 05:33:22;;;;;;;3.83;1.75;;;24.20;42.10;;;;;;21170017;28;20048;-64
2021/07/31 05:43:25;;;;;;;2.30;1.95;;;24.10;42.30;;;;;;21169347;28;20059;-64
2021/07/31 05:53:28;;;;;;;;;;;24.10;42.40;;;;;;21169454;28;20048;-68
2021/07/31 06:03:30;;;;;;;3.00;1.90;;;23.90;42.90;;;;;;21167350;28;19920;-63
2021/07/31 06:13:34;;;;;;;2.60;1.63;;;23.90;42.90;;;;;;21149080;28;20480;-64
2021/07/31 06:23:36;;;;;;;2.60;1.73;;;23.90;43.40;;;;;;21165409;28;20066;-66
2021/07/31 06:33:39;;;;;;;3.75;2.40;;;23.90;43.60;;;;;;21165022;28;20052;-65
2021/07/31 06:43:45;;;;;;;3.22;2.00;;;23.90;44.00;;;;;;21163840;28;20483;-65
2021/07/31 06:53:49;;;;;;;3.13;2.35;;;24.20;43.70;;;;;;21163758;28;20051;-64
2021/07/31 07:03:54;;;;;;;3.38;2.10;;;24.30;43.50;;;;;;21164029;28;20488;-67
2021/07/31 07:13:57;;;;;;;5.90;2.30;;;24.80;42.70;;;;;;21163753;28;20149;-66
2021/07/31 07:24:02;;;;;;;5.00;2.33;;;25.30;41.70;;;;;;21163448;28;20052;-66
2021/07/31 07:34:06;;;;;;;2.92;2.20;;;25.60;41.50;;;;;;21166203;28;20055;-66
2021/07/31 07:44:08;;;;;;;4.47;2.20;;;25.40;41.60;;;;;;21160819;28;20054;-67
2021/07/31 07:54:10;;;;;;;4.85;2.67;;;25.60;41.70;;;;;;21178992;28;20051;-66
2021/07/31 08:04:12;;;;;;;6.70;2.38;;;25.80;41.40;;;;;;21177717;28;20066;-66
2021/07/31 08:14:14;;;;;;;4.20;1.90;;;25.80;41.20;;;;;;21158522;28;20061;-67
2021/07/31 08:24:17;;;;;;;6.32;2.35;;;26.10;40.70;;;;;;21176575;28;20043;-65
2021/07/31 08:34:19;;;;;;;2.28;1.73;;;26.60;40.00;;;;;;21174026;28;20059;-64
2021/07/31 08:44:25;;;;;;;3.42;1.90;;;26.90;39.30;;;;;;21171754;28;20092;-67
2021/07/31 08:54:28;;;;;;;3.67;1.85;;;27.40;38.40;;;;;;21173636;28;20079;-65
2021/07/31 09:04:30;;;;;;;3.03;2.13;;;27.80;37.70;;;;;;21172663;28;20495;-65
2021/07/31 09:14:35;;;;;;;4.15;2.10;;;28.00;37.20;;;;;;21170041;28;20069;-65
2021/07/31 09:24:37;;;;;;;5.05;2.22;;;27.90;37.30;;;;;;21170581;28;20507;-64
2021/07/31 09:34:46;;;;;;;3.45;1.90;;;28.20;37.10;;;;;;21172924;28;20052;-64
2021/07/31 09:44:47;;;;;;;3.55;2.10;;;28.40;36.50;;;;;;21149391;28;20043;-68
2021/07/31 09:54:51;;;;;;;5.68;2.80;;;28.50;35.90;;;;;;21166799;28;20053;-66
2021/07/31 10:04:54;;;;;;;2.88;2.22;;;28.60;35.70;;;;;;21167332;28;20409;-67
2021/07/31 10:14:57;;;;;;;5.15;2.50;;;28.60;35.80;;;;;;21172731;28;20104;-67
2021/07/31 10:25:02;;;;;;;4.28;3.10;;;28.30;36.30;;;;;;21145683;28;20051;-66
2021/07/31 10:35:28;;;;;;;3.13;2.03;;;28.80;35.90;;;;;;21163383;28;20130;-66
2021/07/31 10:45:33;;;;;;;4.60;2.10;;;29.10;35.30;;;;;;21163052;28;20043;-66
2021/07/31 10:55:38;;;;;;;6.47;2.15;;;29.10;35.00;;;;;;21163432;28;20466;-67
2021/07/31 11:05:49;;;;;;;4.75;2.28;;;29.20;35.10;;;;;;21165274;28;20062;-69
2021/07/31 11:16:00;;;;;;;3.70;2.17;;;29.60;34.40;;;;;;21164743;28;20055;-68
2021/07/31 11:26:04;;;;;;;3.78;2.17;;;29.90;34.30;;;;;;21165196;28;20466;-67
2021/07/31 11:36:13;;;;;;;6.45;4.22;;;29.70;34.40;;;;;;21163261;28;20083;-65
2021/07/31 11:46:25;;;;;;;3.72;2.33;;;29.40;34.60;;;;;;21144662;28;20048;-66
2021/07/31 11:56:27;;;;;;;2.83;2.20;;;29.30;34.00;;;;;;21162982;28;20048;-68
2021/07/31 12:06:32;;;;;;;2.88;2.20;;;29.10;34.80;;;;;;21163849;28;20480;-65
2021/07/31 12:16:34;;;;;;;2.03;1.65;;;29.10;34.20;;;;;;21160531;28;20130;-67
2021/07/31 12:26:37;;;;;;;4.10;2.08;;;29.00;34.60;;;;;;21172081;28;20093;-66
2021/07/31 12:36:55;;;;;;;3.40;2.05;;;29.00;34.60;;;;;;21174671;28;20083;-67
2021/07/31 12:46:59;;;;;;;4.00;2.70;;;29.20;33.90;;;;;;21173279;28;20078;-65
2021/07/31 12:57:03;;;;;;;14.55;3.00;;;29.00;34.30;;;;;;21173294;28;20052;-65
2021/07/31 13:07:04;;;;;;;8.68;7.55;;;28.30;35.80;;;;;;21139107;28;20062;-65
2021/07/31 13:17:06;;;;;;;4.38;3.65;;;28.10;39.40;;;;;;21171989;28;20087;-66
2021/07/31 13:27:11;;;;;;;8.48;5.57;;;27.80;39.30;;;;;;21170533;28;20070;-70
2021/07/31 13:37:19;;;;;;;6.00;3.67;;;27.90;36.10;;;;;;21171395;28;20043;-67
2021/07/31 13:47:23;;;;;;;5.43;4.18;;;28.00;34.30;;;;;;21152667;28;20043;-65
2021/07/31 13:57:26;;;;;;;6.32;4.70;;;28.10;33.40;;;;;;21168751;28;20365;-69
2021/07/31 14:07:28;;;;;;;6.15;4.45;;;28.20;33.30;;;;;;21167768;28;20176;-68
2021/07/31 14:17:30;;;;;;;7.35;6.30;;;28.30;32.30;;;;;;21166396;28;20055;-67
2021/07/31 14:27:34;;;;;;;9.23;7.45;;;28.50;31.60;;;;;;21166045;28;20496;-67
2021/07/31 14:37:36;;;;;;;9.52;7.05;;;28.70;31.10;;;;;;21164952;28;20075;-67
2021/07/31 14:47:38;;;;;;;8.43;7.53;;;28.90;30.50;;;;;;21163221;28;20047;-69
2021/07/31 14:57:40;;;;;;;9.98;7.65;;;29.20;30.50;;;;;;21164064;28;20107;-66
2021/07/31 15:07:41;;;;;;;10.45;7.53;;;29.20;30.00;;;;;;21163690;28;20051;-68
2021/07/31 15:17:43;;;;;;;7.82;6.63;;;29.20;30.80;;;;;;21163741;28;20491;-68
2021/07/31 15:27:44;;;;;;;7.93;7.07;;;29.20;30.80;;;;;;21163292;28;20051;-67
2021/07/31 15:37:46;;;;;;;7.78;5.55;;;29.00;31.00;;;;;;21162653;28;20066;-66
2021/07/31 15:47:48;;;;;;;8.05;4.65;;;28.90;30.60;;;;;;21161939;28;20043;-65
2021/07/31 15:57:49;;;;;;;5.75;4.15;;;29.10;30.80;;;;;;21168214;28;20392;-65
2021/07/31 16:07:51;;;;;;;5.95;4.90;;;28.90;30.60;;;;;;21177164;28;20062;-67
2021/07/31 16:17:52;;;;;;;9.55;4.40;;;28.80;31.10;;;;;;21176771;28;20157;-67
2021/07/31 16:27:54;;;;;;;4.82;4.20;;;28.80;30.20;;;;;;21175835;28;20040;-67
2021/07/31 16:37:56;;;;;;;5.13;3.70;;;28.60;30.70;;;;;;21156443;28;20054;-68
2021/07/31 16:47:58;;;;;;;3.67;2.85;;;28.60;30.70;;;;;;21174523;28;20462;-64
2021/07/31 16:57:59;;;;;;;3.10;2.30;;;28.10;31.30;;;;;;21173496;28;20056;-65
2021/07/31 17:08:01;;;;;;;4.75;2.83;;;27.70;31.10;;;;;;21172317;28;20088;-69
2021/07/31 17:18:02;;;;;;;3.28;1.95;;;27.60;31.60;;;;;;21173048;28;20100;-67
2021/07/31 17:28:04;;;;;;;5.30;2.30;;;27.30;32.00;;;;;;21171929;28;20047;-67
2021/07/31 17:38:06;;;;;;;4.78;3.15;;;27.20;32.00;;;;;;21176218;28;20047;-65
2021/07/31 17:48:08;;;;;;;4.82;3.35;;;27.00;31.90;;;;;;21170026;28;20047;-64
2021/07/31 17:58:11;;;;;;;6.88;5.72;;;26.80;32.00;;;;;;21150861;28;20043;-67
2021/07/31 18:08:13;;;;;;;7.00;5.30;;;26.80;31.60;;;;;;21168542;28;20040;-66
2021/07/31 18:18:15;;;;;;;8.00;5.97;;;26.80;31.80;;;;;;21167000;28;20056;-67
2021/07/31 18:28:16;;;;;;;9.52;6.03;;;26.50;31.60;;;;;;21148589;28;20101;-67
2021/07/31 18:38:18;;;;;;;9.68;7.20;;;26.10;32.40;;;;;;21165248;28;20048;-64
2021/07/31 18:48:20;;;;;;;;;;;26.10;32.30;;;;;;21081089;28;20036;-66
2021/07/31 18:58:22;;;;;;;9.70;6.30;;;26.00;32.40;;;;;;21087733;28;19924;-66
2021/07/31 19:08:25;;;;;;;8.73;5.35;;;25.90;32.70;;;;;;21086851;28;20044;-64
2021/07/31 19:18:27;;;;;;;6.45;4.65;;;25.70;32.30;;;;;;21077992;28;20056;-64
2021/07/31 19:28:32;;;;;;;7.00;4.30;;;25.40;33.10;;;;;;21079741;28;20051;-68
2021/07/31 19:38:33;;;;;;;;;;;25.20;33.00;;;;;;21077270;28;20087;-66
2021/07/31 19:48:35;;;;;;;8.25;4.97;;;24.90;33.50;;;;;;21094131;28;19920;-65
2021/07/31 19:58:36;;;;;;;13.15;5.00;;;24.80;33.90;;;;;;21093869;28;20059;-66
2021/07/31 20:08:38;;;;;;;8.00;4.17;;;24.70;34.30;;;;;;21093713;28;20055;-67
2021/07/31 20:18:40;;;;;;;4.55;3.50;;;24.60;35.60;;;;;;21092571;28;20068;-63
2021/07/31 20:28:42;;;;;;;3.42;1.70;;;24.20;37.60;;;;;;21091463;28;20381;-63
2021/07/31 20:38:43;;;;;;;2.80;1.90;;;23.90;39.30;;;;;;21090977;28;20052;-62
2021/07/31 20:48:45;;;;;;;4.70;1.90;;;23.60;40.20;;;;;;21089231;28;20048;-66
2021/07/31 20:58:47;;;;;;;3.40;2.00;;;23.50;39.60;;;;;;21090402;28;20396;-63
2021/07/31 21:08:50;;;;;;;4.72;1.92;;;23.20;40.40;;;;;;21089187;28;20055;-63
2021/07/31 21:18:52;;;;;;;2.50;1.80;;;23.20;41.70;;;;;;21088569;28;20566;-62
2021/07/31 21:28:53;;;;;;;2.72;1.50;;;23.10;43.90;;;;;;21086737;28;20048;-67
2021/07/31 21:38:54;;;;;;;3.40;1.90;;;22.80;45.40;;;;;;21085776;28;20055;-63
2021/07/31 21:48:55;;;;;;;2.97;1.83;;;22.80;45.90;;;;;;21084806;28;20110;-63
2021/07/31 21:58:57;;;;;;;2.27;1.67;;;22.80;46.10;;;;;;21065853;28;20059;-65
2021/07/31 22:08:58;;;;;;;3.28;1.50;;;22.70;45.50;;;;;;21066213;28;20052;-62
2021/07/31 22:19:01;;;;;;;2.35;1.40;;;22.70;47.20;;;;;;21084353;28;20071;-66
2021/07/31 22:29:04;;;;;;;2.53;1.48;;;22.60;48.50;;;;;;21082714;28;20052;-66
2021/07/31 22:39:05;;;;;;;2.25;1.30;;;22.40;48.60;;;;;;21081809;28;20048;-68
2021/07/31 22:49:07;;;;;;;2.92;1.05;;;22.20;48.90;;;;;;21080738;28;20059;-66
2021/07/31 22:59:08;;;;;;;3.97;1.20;;;22.10;48.80;;;;;;21081074;28;20052;-65
2021/07/31 23:09:10;;;;;;;3.28;1.23;;;22.10;48.50;;;;;;21079572;28;20063;-67
2021/07/31 23:19:12;;;;;;;2.42;1.27;;;22.10;50.00;;;;;;21077886;28;20048;-64
2021/07/31 23:29:14;;;;;;;2.30;1.30;;;21.80;51.20;;;;;;21078196;28;20087;-63
2021/07/31 23:39:17;;;;;;;2.30;1.15;;;21.70;51.50;;;;;;21077713;28;20059;-66
2021/07/31 23:49:20;;;;;;;1.60;1.10;;;21.60;51.70;;;;;;21077950;28;20062;-62
2021/07/31 23:59:22;;;;;;;2.30;0.97;;;21.50;51.50;;;;;;21077190;28;20044;-62
